Time;durP1;ratioP1;P1;durP2;ratioP2;P2;SDS_P1;SDS_P2;PMS_P1;PMS_P2;Temp;Humidity;BMP_temperature;BMP_pressure;BME280_temperature;BME280_humidity;BME280_pressure;Samples;Min_cycle;Max_cycle;Signal;HPM_P1;HPM_P2
2022/09/15 00:00:57;;;;;;;;;2.00;2.00;;;;;22.84;62.20;100339.16;4902347;29;46729;-66
2022/09/15 00:03:22;;;;;;;;;3.75;2.75;;;;;22.83;62.01;100340.16;4903298;29;45400;-66
2022/09/15 00:05:50;;;;;;;;;3.00;1.25;;;;;22.82;62.04;100333.00;4901116;28;47066;-66
2022/09/15 00:08:15;;;;;;;;;0.25;0.25;;;;;22.83;61.86;100340.16;4885423;29;45623;-66
2022/09/15 00:11:04;;;;;;;;;1.75;1.75;;;;;22.83;61.75;100342.88;4901846;29;45720;-66
2022/09/15 00:13:30;;;;;;;;;1.00;1.00;;;;;22.77;61.75;100338.00;4912526;28;45401;-66
2022/09/15 00:15:55;;;;;;;;;1.00;1.00;;;;;22.78;61.59;100339.72;4901660;28;45491;-66
2022/09/15 00:18:20;;;;;;;;;1.00;1.00;;;;;22.79;62.11;100346.00;4902059;29;45426;-66
2022/09/15 00:20:46;;;;;;;;;3.00;2.00;;;;;22.78;62.01;100344.31;4884361;29;46427;-66
2022/09/15 00:23:14;;;;;;;;;0.00;0.00;;;;;22.75;61.95;100350.88;4903812;29;45304;-67
2022/09/15 00:25:50;;;;;;;;;2.00;1.00;;;;;22.68;61.78;100336.97;4898819;28;45406;-66
2022/09/15 00:28:18;;;;;;;;;1.00;1.00;;;;;22.66;61.73;100341.69;4901926;29;45481;-66
2022/09/15 00:30:47;;;;;;;;;2.75;2.00;;;;;22.65;62.04;100344.53;4901629;29;46325;-66
2022/09/15 00:33:14;;;;;;;;;1.00;1.00;;;;;22.66;62.12;100346.28;4902095;29;45322;-66
2022/09/15 00:35:41;;;;;;;;;1.00;1.00;;;;;22.65;61.90;100339.94;4903318;29;45414;-66
2022/09/15 00:38:09;;;;;;;;;1.75;1.25;;;;;22.60;62.27;100335.94;4899475;28;45408;-67
2022/09/15 00:40:44;;;;;;;;;1.50;1.50;;;;;22.63;61.82;100343.81;4900092;29;45715;-66
2022/09/15 00:43:10;;;;;;;;;1.00;1.00;;;;;22.55;62.05;100328.19;4902427;29;45553;-66
2022/09/15 00:45:36;;;;;;;;;1.00;1.00;;;;;22.58;62.12;100345.06;4903486;29;45392;-66
2022/09/15 00:48:04;;;;;;;;;1.50;1.50;;;;;22.50;62.20;100335.88;4902223;29;45681;-66
2022/09/15 00:50:33;;;;;;;;;1.00;1.00;;;;;22.50;62.07;100344.06;4899115;29;45538;-67
2022/09/15 00:53:01;;;;;;;;;0.25;0.25;;;;;22.52;62.23;100351.09;4902651;29;45589;-66
2022/09/15 00:55:26;;;;;;;;;0.00;0.00;;;;;22.51;61.91;100356.66;4902409;29;45432;-66
2022/09/15 00:58:00;;;;;;;;;1.00;1.00;;;;;22.50;62.17;100363.97;4903289;28;45437;-67
2022/09/15 01:00:27;;;;;;;;;1.50;1.00;;;;;22.46;62.39;100358.94;4900444;29;45359;-66
2022/09/15 01:02:54;;;;;;;;;2.00;0.00;;;;;22.47;62.31;100357.91;4901378;29;45287;-66
2022/09/15 01:05:24;;;;;;;;;1.00;1.00;;;;;22.43;62.55;100354.59;4902617;29;45446;-66
2022/09/15 01:07:53;;;;;;;;;1.00;1.00;;;;;22.50;62.36;100380.28;4903109;29;45475;-66
2022/09/15 01:10:24;;;;;;;;;1.00;1.00;;;;;22.45;62.32;100371.66;4899998;29;45392;-66
2022/09/15 01:12:51;;;;;;;;;2.50;1.50;;;;;22.43;62.29;100372.78;4906473;28;45538;-66
2022/09/15 01:15:16;;;;;;;;;3.25;3.00;;;;;22.43;61.91;100381.81;4901222;28;45312;-66
2022/09/15 01:17:52;;;;;;;;;2.75;2.75;;;;;22.45;62.23;100384.38;4895008;29;45306;-66
2022/09/15 01:21:05;;;;;;;;;3.00;3.00;;;;;22.42;61.97;100388.25;4897530;29;45501;-66
2022/09/15 01:23:48;;;;;;;;;2.75;2.25;;;;;22.40;62.14;100384.78;4827814;29;45651;-66
2022/09/15 01:26:43;;;;;;;;;5.00;3.75;;;;;22.39;62.29;100383.09;4898604;29;45341;-66
2022/09/15 01:29:34;;;;;;;;;4.00;3.00;;;;;22.36;62.43;100383.34;4816708;29;45654;-67
2022/09/15 01:33:03;;;;;;;;;5.00;4.00;;;;;22.33;62.28;100384.47;4897175;29;46190;-66
2022/09/15 01:35:32;;;;;;;;;3.00;3.00;;;;;22.32;62.19;100392.75;4870336;29;45427;-66
2022/09/15 01:38:07;;;;;;;;;4.50;3.50;;;;;22.30;62.66;100392.91;4897195;28;45389;-66
2022/09/15 01:40:41;;;;;;;;;6.00;6.00;;;;;22.29;61.86;100396.63;4893764;29;45350;-66
2022/09/15 01:43:09;;;;;;;;;7.00;5.50;;;;;22.15;62.53;100389.66;4885531;29;47290;-67
2022/09/15 01:45:39;;;;;;;;;5.50;4.50;;;;;22.14;62.97;100398.78;4901828;29;45445;-66
2022/09/15 01:48:07;;;;;;;;;8.25;8.00;;;;;22.07;62.97;100396.72;4902675;29;45408;-67
2022/09/15 01:50:37;;;;;;;;;5.75;5.75;;;;;21.99;63.13;100395.53;4899235;29;45436;-66
2022/09/15 01:53:10;;;;;;;;;5.25;5.25;;;;;21.93;63.33;100384.31;4897142;29;46552;-67
2022/09/15 01:55:39;;;;;;;;;6.50;4.00;;;;;21.91;62.85;100387.16;4902291;29;45268;-67
2022/09/15 01:58:06;;;;;;;;;4.00;4.00;;;;;21.96;63.06;100397.66;4900581;29;45533;-66
2022/09/15 02:00:42;;;;;;;;;2.75;2.75;;;;;21.95;63.31;100399.53;4898165;29;45586;-66
2022/09/15 02:03:24;;;;;;;;;4.00;4.00;;;;;21.93;62.93;100398.75;4892662;29;46152;-66
2022/09/15 02:06:01;;;;;;;;;3.50;3.25;;;;;21.93;63.58;100396.03;4902166;29;45487;-66
2022/09/15 02:08:46;;;;;;;;;3.00;2.00;;;;;21.92;63.05;100397.06;4899606;29;45346;-67
2022/09/15 02:11:23;;;;;;;;;2.50;2.50;;;;;21.94;63.41;100405.09;4900688;29;45505;-66
2022/09/15 02:14:38;;;;;;;;;2.00;2.00;;;;;21.93;63.45;100397.91;4909454;28;47243;-66
2022/09/15 02:17:04;;;;;;;;;2.00;2.00;;;;;21.84;62.97;100386.84;4853002;29;45402;-66
2022/09/15 02:19:40;;;;;;;;;2.00;2.00;;;;;21.94;63.41;100402.38;4900010;29;45502;-66
2022/09/15 02:22:16;;;;;;;;;0.50;0.50;;;;;21.90;62.94;100400.88;4896551;29;45786;-67
2022/09/15 02:24:50;;;;;;;;;4.50;3.00;;;;;21.89;62.59;100397.31;4902123;29;46171;-66
2022/09/15 02:27:22;;;;;;;;;2.25;2.00;;;;;21.86;62.78;100404.88;4900065;29;45532;-66
2022/09/15 02:29:51;;;;;;;;;1.75;1.50;;;;;21.78;63.52;100387.34;4899172;29;45440;-66
2022/09/15 02:32:22;;;;;;;;;3.25;2.00;;;;;21.80;63.14;100400.81;4901829;29;45475;-66
2022/09/15 02:34:50;;;;;;;;;2.00;2.00;;;;;21.75;63.30;100397.63;4902018;29;46426;-66
2022/09/15 02:37:19;;;;;;;;;4.00;4.00;;;;;21.76;63.62;100397.50;4902046;29;46059;-66
2022/09/15 02:39:52;;;;;;;;;5.50;5.00;;;;;21.72;63.36;100393.31;4886042;29;45481;-66
2022/09/15 02:42:23;;;;;;;;;4.00;4.00;;;;;21.71;63.51;100393.44;4904660;29;45429;-66
2022/09/15 02:44:49;;;;;;;;;4.00;4.00;;;;;21.69;63.09;100395.44;4905306;29;46129;-67
2022/09/15 02:47:15;;;;;;;;;6.00;6.00;;;;;21.64;62.85;100402.13;4905281;29;45321;-66
2022/09/15 02:49:40;;;;;;;;;10.50;8.25;;;;;21.61;62.77;100401.50;4901011;29;45307;-66
2022/09/15 02:52:06;;;;;;;;;8.75;8.75;;;;;21.56;62.77;100398.31;4905062;29;45793;-66
2022/09/15 02:54:31;;;;;;;;;9.25;9.25;;;;;21.54;62.92;100397.59;4905075;29;46546;-66
2022/09/15 02:56:58;;;;;;;;;13.00;11.00;;;;;21.58;63.19;100412.63;4887955;29;45444;-66
2022/09/15 02:59:24;;;;;;;;;10.00;9.50;;;;;21.59;62.43;100407.06;4900672;29;45499;-66
2022/09/15 03:01:50;;;;;;;;;10.25;10.25;;;;;21.58;62.36;100408.06;4898521;29;45312;-66
2022/09/15 03:04:16;;;;;;;;;10.25;10.25;;;;;21.47;62.10;100399.97;4904804;29;46318;-66
2022/09/15 03:06:42;;;;;;;;;13.50;11.75;;;;;21.27;62.87;100390.75;4904940;29;45335;-66
2022/09/15 03:09:08;;;;;;;;;9.50;9.00;;;;;21.23;63.14;100401.00;4902161;29;45723;-66
2022/09/15 03:11:34;;;;;;;;;9.25;9.00;;;;;21.20;63.26;100397.66;4904238;29;45531;-66
2022/09/15 03:14:04;;;;;;;;;6.50;6.50;;;;;21.24;62.86;100402.69;4912899;28;46168;-66
2022/09/15 03:16:33;;;;;;;;;8.50;8.50;;;;;21.24;62.61;100408.13;4904923;29;45328;-66
2022/09/15 03:18:59;;;;;;;;;8.25;7.50;;;;;21.20;62.33;100412.09;4903045;29;45432;-66
2022/09/15 03:21:26;;;;;;;;;10.00;10.00;;;;;21.16;62.75;100415.19;4903157;29;45457;-66
2022/09/15 03:23:52;;;;;;;;;9.00;7.75;;;;;21.08;62.94;100399.53;4904450;29;45552;-66
2022/09/15 03:26:17;;;;;;;;;9.75;8.75;;;;;21.08;62.17;100405.84;4904426;29;45467;-66
2022/09/15 03:28:42;;;;;;;;;7.00;6.50;;;;;21.04;62.44;100401.63;4885997;29;45762;-66
2022/09/15 03:31:08;;;;;;;;;7.25;6.50;;;;;21.05;62.73;100408.78;4902239;29;45445;-66
2022/09/15 03:33:34;;;;;;;;;8.25;8.25;;;;;21.08;62.87;100413.97;4886492;29;45392;-66
2022/09/15 03:36:00;;;;;;;;;10.25;10.25;;;;;21.07;62.53;100411.38;4904405;28;45439;-66
2022/09/15 03:38:25;;;;;;;;;8.00;7.00;;;;;21.04;62.60;100412.47;4898681;28;45359;-66
2022/09/15 03:40:58;;;;;;;;;13.00;12.50;;;;;20.99;62.24;100412.00;4903836;29;45391;-66
2022/09/15 03:43:23;;;;;;;;;11.50;9.75;;;;;20.92;62.40;100413.50;4903867;29;46272;-66
2022/09/15 03:45:49;;;;;;;;;9.00;8.25;;;;;20.88;61.85;100406.56;4904530;29;45368;-66
2022/09/15 03:48:14;;;;;;;;;6.75;5.75;;;;;20.83;61.92;100403.38;4902472;29;45514;-66
2022/09/15 03:50:39;;;;;;;;;8.50;7.25;;;;;20.85;61.81;100409.56;4885057;29;45807;-66
2022/09/15 03:53:05;;;;;;;;;9.50;8.50;;;;;20.76;61.65;100402.16;4903770;29;60190;-66
2022/09/15 03:55:30;;;;;;;;;4.75;4.75;;;;;20.75;61.99;100401.28;4904039;29;45400;-66
2022/09/15 03:57:55;;;;;;;;;8.00;7.00;;;;;20.76;61.99;100408.44;4904485;29;45440;-66
2022/09/15 04:00:21;;;;;;;;;8.00;8.00;;;;;20.77;61.94;100417.44;4901753;29;45329;-66
2022/09/15 04:02:47;;;;;;;;;7.00;6.00;;;;;20.78;61.93;100417.31;4904077;29;46245;-66
2022/09/15 04:05:12;;;;;;;;;4.25;4.25;;;;;20.78;61.54;100419.16;4904030;29;45404;-66
2022/09/15 04:07:39;;;;;;;;;6.00;6.00;;;;;20.78;61.65;100417.31;4904205;29;45252;-66
2022/09/15 04:10:05;;;;;;;;;7.25;6.50;;;;;20.81;61.92;100413.50;4900800;29;45339;-66
2022/09/15 04:12:31;;;;;;;;;7.25;7.25;;;;;20.80;61.38;100417.19;4906530;28;46362;-66
2022/09/15 04:14:56;;;;;;;;;8.00;8.00;;;;;20.73;61.03;100408.66;4908406;28;45487;-66
2022/09/15 04:17:22;;;;;;;;;8.75;6.75;;;;;20.76;61.66;100423.84;4904260;29;45468;-66
2022/09/15 04:19:48;;;;;;;;;9.25;9.25;;;;;20.72;61.68;100431.38;4901502;29;45462;-66
2022/09/15 04:22:13;;;;;;;;;9.25;9.25;;;;;20.71;61.23;100430.53;4903166;29;46387;-66
2022/09/15 04:24:39;;;;;;;;;10.00;7.25;;;;;20.63;61.33;100423.97;4899605;29;45384;-66
2022/09/15 04:27:04;;;;;;;;;14.50;11.50;;;;;20.61;61.36;100437.59;4896452;29;45474;-66
2022/09/15 04:29:29;;;;;;;;;7.75;7.75;;;;;20.61;60.99;100434.03;4900855;29;48157;-66
2022/09/15 04:31:55;;;;;;;;;11.25;11.25;;;;;20.48;61.61;100413.34;4902303;29;46955;-66
2022/09/15 04:34:20;;;;;;;;;8.00;7.75;;;;;20.58;61.27;100435.16;4903740;29;45373;-66
2022/09/15 04:36:45;;;;;;;;;9.00;9.00;;;;;20.55;61.01;100436.25;4886802;29;45394;-66
2022/09/15 04:39:11;;;;;;;;;13.00;12.75;;;;;20.56;60.52;100428.97;4897077;28;50669;-66
2022/09/15 04:41:36;;;;;;;;;10.00;9.00;;;;;20.59;61.06;100444.16;4902863;29;45492;-66
2022/09/15 04:44:02;;;;;;;;;11.75;9.75;;;;;20.59;61.06;100444.16;4886599;29;45458;-66
2022/09/15 04:46:27;;;;;;;;;12.25;12.25;;;;;20.53;61.12;100440.06;4903688;29;45417;-66
2022/09/15 04:48:53;;;;;;;;;9.75;9.75;;;;;20.53;60.78;100440.06;4882999;29;45595;-66
2022/09/15 04:51:20;;;;;;;;;9.50;9.50;;;;;20.57;61.02;100451.53;4896048;29;46334;-66
2022/09/15 04:53:46;;;;;;;;;15.00;14.50;;;;;20.54;60.43;100447.22;4903340;29;45525;-69
2022/09/15 04:56:16;;;;;;;;;17.00;16.00;;;;;20.50;61.05;100462.00;4903459;29;45590;-69
2022/09/15 04:59:04;;;;;;;;;18.75;17.75;;;;;20.48;60.79;100463.97;4901295;29;45466;-68
2022/09/15 05:01:32;;;;;;;;;14.50;12.50;;;;;20.37;60.88;100459.38;4901468;29;45566;-67
2022/09/15 05:04:00;;;;;;;;;15.25;13.75;;;;;20.40;60.42;100471.81;4903184;29;45642;-67
2022/09/15 05:06:26;;;;;;;;;16.25;15.00;;;;;20.39;60.74;100475.53;4903054;29;45390;-67
2022/09/15 05:08:54;;;;;;;;;13.75;13.75;;;;;20.38;60.70;100481.94;4901160;29;45545;-66
2022/09/15 05:11:20;;;;;;;;;11.75;11.25;;;;;20.36;60.20;100485.66;4901573;29;46434;-67
2022/09/15 05:13:46;;;;;;;;;11.75;11.75;;;;;20.28;59.97;100479.94;4910959;28;45745;-67
2022/09/15 05:16:17;;;;;;;;;14.75;13.25;;;;;20.29;60.35;100487.06;4902649;29;45632;-68
2022/09/15 05:18:45;;;;;;;;;9.75;9.00;;;;;20.23;60.31;100489.41;4900894;29;45530;-69
2022/09/15 05:21:12;;;;;;;;;11.00;11.00;;;;;20.24;60.46;100493.84;4902251;29;45814;-69
2022/09/15 05:23:38;;;;;;;;;14.00;13.25;;;;;20.19;60.43;100505.03;4903019;29;45388;-69
2022/09/15 05:26:07;;;;;;;;;12.25;12.25;;;;;20.16;60.10;100502.56;4898290;29;45473;-69
2022/09/15 05:28:35;;;;;;;;;14.00;13.50;;;;;20.18;60.43;100506.91;4901149;29;45352;-68
2022/09/15 05:31:00;;;;;;;;;11.75;10.75;;;;;20.14;60.39;100508.09;4900791;28;45414;-69
2022/09/15 05:33:25;;;;;;;;;9.75;9.75;;;;;20.11;60.62;100512.88;4901530;29;45413;-69
2022/09/15 05:35:57;;;;;;;;;14.00;13.50;;;;;20.10;60.59;100511.19;4901920;28;45607;-69
2022/09/15 05:38:24;;;;;;;;;9.00;9.00;;;;;20.07;60.13;100508.69;4900677;29;45803;-68
2022/09/15 05:40:49;;;;;;;;;11.50;10.50;;;;;20.08;60.60;100519.41;4900431;29;46118;-69
2022/09/15 05:43:16;;;;;;;;;14.25;11.25;;;;;20.02;60.18;100506.31;4901946;29;45444;-69
2022/09/15 05:45:42;;;;;;;;;9.00;9.00;;;;;20.04;60.34;100520.63;4902835;29;45420;-69
2022/09/15 05:48:09;;;;;;;;;8.00;8.00;;;;;20.02;60.82;100521.72;4902430;29;45662;-68
2022/09/15 05:50:35;;;;;;;;;7.00;7.00;;;;;19.97;60.34;100520.22;4880887;29;48298;-68
2022/09/15 05:53:01;;;;;;;;;10.75;7.00;;;;;19.97;60.83;100519.34;4902161;29;45547;-74
2022/09/15 05:55:27;;;;;;;;;8.50;7.00;;;;;19.95;61.07;100521.31;4901734;29;45440;-74
2022/09/15 05:57:52;;;;;;;;;11.50;9.25;;;;;19.96;60.97;100514.91;4900657;29;46551;-74
2022/09/15 06:00:18;;;;;;;;;11.75;10.50;;;;;19.98;60.94;100524.66;4899667;29;45523;-72
2022/09/15 06:02:43;;;;;;;;;12.25;12.25;;;;;19.91;60.99;100511.69;4902207;29;45506;-72
2022/09/15 06:05:09;;;;;;;;;13.50;12.00;;;;;19.90;61.14;100508.13;4902468;29;45395;-72
2022/09/15 06:07:35;;;;;;;;;12.00;10.75;;;;;19.91;61.27;100525.22;4897386;28;45530;-72
2022/09/15 06:10:00;;;;;;;;;9.00;8.25;;;;;19.90;60.99;100527.09;4879208;29;47824;-72
2022/09/15 06:12:26;;;;;;;;;11.50;9.75;;;;;19.98;61.06;100535.50;4899624;29;45523;-72
2022/09/15 06:14:52;;;;;;;;;14.50;11.75;;;;;19.99;61.01;100541.78;4899288;28;45507;-72
2022/09/15 06:17:17;;;;;;;;;12.00;10.25;;;;;19.99;61.28;100541.78;4898245;28;45562;-72
2022/09/15 06:19:42;;;;;;;;;13.25;11.75;;;;;19.97;60.92;100551.88;4897059;28;47091;-72
2022/09/15 06:22:08;;;;;;;;;12.50;10.50;;;;;19.90;61.50;100546.03;4878486;29;45408;-72
2022/09/15 06:24:33;;;;;;;;;13.00;11.25;;;;;19.93;61.02;100551.25;4899455;28;45546;-70
2022/09/15 06:26:59;;;;;;;;;15.00;14.00;;;;;19.91;61.40;100547.78;4900655;28;45532;-72
2022/09/15 06:29:24;;;;;;;;;11.75;11.75;;;;;19.95;61.17;100560.09;4899567;29;45867;-71
2022/09/15 06:31:50;;;;;;;;;13.75;12.75;;;;;19.91;61.17;100557.72;4886690;29;45435;-71
2022/09/15 06:34:15;;;;;;;;;14.75;11.00;;;;;19.89;61.32;100563.25;4902000;29;45443;-71
2022/09/15 06:36:40;;;;;;;;;17.25;15.00;;;;;19.86;61.19;100554.50;4900431;28;45359;-71
2022/09/15 06:39:07;;;;;;;;;15.25;13.50;;;;;19.85;60.98;100571.75;4893860;28;45561;-72
2022/09/15 06:41:32;;;;;;;;;13.75;13.75;;;;;19.81;61.30;100571.09;4895349;28;45435;-72
2022/09/15 06:43:58;;;;;;;;;15.00;12.00;;;;;19.78;61.58;100572.19;4904041;28;45519;-71
2022/09/15 06:46:25;;;;;;;;;17.75;15.00;;;;;19.80;61.64;100578.34;4901839;29;45623;-72
2022/09/15 06:48:51;;;;;;;;;14.50;13.00;;;;;19.73;61.30;100570.75;4899123;29;46463;-72
2022/09/15 06:51:19;;;;;;;;;17.75;13.75;;;;;19.78;61.47;100579.47;4899359;28;45572;-72
2022/09/15 06:53:44;;;;;;;;;16.25;16.25;;;;;19.78;61.46;100588.44;4872410;29;45391;-72
2022/09/15 06:56:13;;;;;;;;;18.75;16.50;;;;;19.65;61.56;100563.22;4900019;29;45571;-72
2022/09/15 06:58:40;;;;;;;;;19.25;17.50;;;;;19.78;61.39;100585.75;4897347;28;45667;-72
2022/09/15 07:01:11;;;;;;;;;23.00;19.00;;;;;19.78;61.63;100593.00;4899102;29;45632;-75
2022/09/15 07:03:39;;;;;;;;;16.00;14.00;;;;;19.78;61.26;100598.44;4881872;29;45576;-77
2022/09/15 07:06:06;;;;;;;;;22.50;20.00;;;;;19.76;61.13;100600.34;4877807;29;45519;-76
2022/09/15 07:08:31;;;;;;;;;22.00;18.75;;;;;19.70;61.13;100598.09;4896154;29;45563;-68
2022/09/15 07:10:57;;;;;;;;;20.75;17.50;;;;;19.65;61.10;100605.69;4898289;29;45380;-67
2022/09/15 07:13:23;;;;;;;;;23.50;21.50;;;;;19.53;60.61;100602.88;4900206;28;45605;-68
2022/09/15 07:15:50;;;;;;;;;22.25;20.50;;;;;19.50;61.41;100607.66;4898180;29;45545;-68
2022/09/15 07:18:16;;;;;;;;;22.50;20.25;;;;;19.55;61.45;100616.31;4882817;29;46015;-68
2022/09/15 07:20:42;;;;;;;;;26.75;24.00;;;;;19.47;61.58;100616.84;4900048;28;45511;-68
2022/09/15 07:23:07;;;;;;;;;22.00;21.50;;;;;19.39;61.16;100617.38;4898090;29;45446;-68
2022/09/15 07:25:33;;;;;;;;;21.25;19.75;;;;;19.38;61.76;100612.97;4877764;29;45513;-68
2022/09/15 07:27:58;;;;;;;;;21.50;17.25;;;;;19.42;61.85;100614.47;4891176;29;46087;-68
2022/09/15 07:30:24;;;;;;;;;17.50;16.00;;;;;19.41;61.39;100612.75;4902385;29;45512;-68
2022/09/15 07:32:49;;;;;;;;;24.50;19.75;;;;;19.48;61.36;100623.13;4902210;29;45378;-68
2022/09/15 07:35:14;;;;;;;;;21.25;18.50;;;;;19.49;61.36;100628.44;4900958;29;45529;-68
2022/09/15 07:37:40;;;;;;;;;18.50;18.00;;;;;19.45;61.78;100613.41;4903314;29;46271;-68
2022/09/15 07:40:05;;;;;;;;;16.25;15.00;;;;;19.53;61.05;100618.25;4903595;29;45318;-68
2022/09/15 07:42:31;;;;;;;;;19.00;17.00;;;;;19.55;60.96;100624.44;4903651;29;45363;-68
2022/09/15 07:44:56;;;;;;;;;24.00;21.50;;;;;19.61;60.94;100632.09;4902179;29;45564;-68
2022/09/15 07:47:22;;;;;;;;;20.25;17.25;;;;;19.62;60.88;100636.53;4904108;28;45713;-68
2022/09/15 07:49:49;;;;;;;;;23.50;23.00;;;;;19.63;60.69;100646.41;4896420;29;45706;-68
2022/09/15 07:52:14;;;;;;;;;19.75;18.75;;;;;19.63;60.31;100641.84;4903321;29;45770;-68
2022/09/15 07:54:40;;;;;;;;;26.50;22.00;;;;;19.63;60.48;100647.25;4902318;29;45447;-68
2022/09/15 07:57:05;;;;;;;;;21.00;19.50;;;;;19.67;61.06;100638.91;4903037;28;46125;-68
2022/09/15 07:59:30;;;;;;;;;19.00;18.50;;;;;19.71;60.57;100637.72;4901396;29;45464;-67
2022/09/15 08:01:56;;;;;;;;;21.25;17.75;;;;;19.75;60.26;100645.53;4903549;29;45411;-66
2022/09/15 08:04:21;;;;;;;;;22.75;21.75;;;;;19.74;60.66;100648.31;4886415;29;54679;-66
2022/09/15 08:06:46;;;;;;;;;21.00;18.25;;;;;19.79;60.26;100655.16;4903428;28;46393;-66
2022/09/15 08:09:16;;;;;;;;;19.25;17.00;;;;;19.79;60.01;100649.75;4902074;29;45344;-66
2022/09/15 08:11:41;;;;;;;;;16.25;14.00;;;;;19.76;59.86;100640.97;4903175;29;45483;-66
2022/09/15 08:14:07;;;;;;;;;16.50;15.00;;;;;19.86;59.99;100647.44;4904427;28;46783;-66
2022/09/15 08:16:33;;;;;;;;;18.50;16.50;;;;;19.85;59.09;100651.16;4898364;29;46548;-66
2022/09/15 08:18:58;;;;;;;;;18.75;17.75;;;;;19.88;59.92;100650.94;4898886;28;45929;-66
2022/09/15 08:21:24;;;;;;;;;20.50;18.25;;;;;19.93;60.11;100658.72;4901324;29;45625;-66
2022/09/15 08:23:52;;;;;;;;;18.00;17.25;;;;;19.97;59.26;100661.09;4903598;29;45713;-66
2022/09/15 08:26:17;;;;;;;;;18.00;17.50;;;;;19.98;59.11;100661.97;4893308;29;46127;-66
2022/09/15 08:28:42;;;;;;;;;16.25;15.50;;;;;20.02;59.01;100666.19;4898429;28;45469;-66
2022/09/15 08:31:10;;;;;;;;;13.50;13.50;;;;;20.00;58.75;100665.44;4902264;29;46001;-66
2022/09/15 08:33:36;;;;;;;;;12.50;9.25;;;;;20.07;58.37;100677.53;4902727;29;45471;-66
2022/09/15 08:36:04;;;;;;;;;15.75;15.25;;;;;20.11;59.29;100684.47;4903381;29;46390;-66
2022/09/15 08:38:29;;;;;;;;;18.25;17.50;;;;;20.19;59.06;100686.59;4896806;28;45499;-66
2022/09/15 08:40:59;;;;;;;;;17.50;17.50;;;;;20.21;58.87;100686.50;4900545;29;45444;-66
2022/09/15 08:43:30;;;;;;;;;18.50;14.25;;;;;20.25;58.30;100690.72;4902859;29;45338;-66
2022/09/15 08:46:02;;;;;;;;;14.00;14.00;;;;;20.29;58.10;100689.50;4902639;29;45483;-66
2022/09/15 08:48:48;;;;;;;;;14.25;11.75;;;;;20.39;57.90;100695.13;4879245;29;45389;-66
2022/09/15 08:51:27;;;;;;;;;10.25;10.25;;;;;20.38;57.91;100686.13;4900356;29;45843;-69
2022/09/15 08:54:01;;;;;;;;;10.75;10.75;;;;;20.45;57.90;100697.38;4885052;29;45887;-71
2022/09/15 08:56:28;;;;;;;;;12.25;10.25;;;;;20.37;56.52;100681.66;4902975;29;46894;-71
2022/09/15 08:58:54;;;;;;;;;9.75;9.25;;;;;20.46;57.09;100701.81;4901514;29;45621;-71
2022/09/15 09:01:34;;;;;;;;;10.00;7.75;;;;;20.55;57.27;100701.97;4902829;29;45292;-72
2022/09/15 09:04:19;;;;;;;;;11.25;8.75;;;;;20.48;56.04;100683.56;4902377;29;45666;-71
2022/09/15 09:06:59;;;;;;;;;6.25;6.25;;;;;20.62;56.34;100698.81;4908135;28;47153;-71
2022/09/15 09:09:41;;;;;;;;;7.50;7.50;;;;;20.68;56.59;100703.78;4899952;28;45477;-71
2022/09/15 09:12:36;;;;;;;;;9.00;6.50;;;;;20.68;55.90;100698.38;4893703;29;45493;-71
2022/09/15 09:15:33;;;;;;;;;9.50;9.50;;;;;20.70;56.41;100704.56;4896294;29;45559;-71
2022/09/15 09:18:12;;;;;;;;;10.50;9.00;;;;;20.75;56.27;100704.19;4888328;28;45587;-71
2022/09/15 09:21:19;;;;;;;;;7.25;7.00;;;;;20.80;56.21;100700.16;4900480;28;45411;-71
2022/09/15 09:23:53;;;;;;;;;10.75;9.25;;;;;20.82;56.03;100694.63;4888313;28;45684;-71
2022/09/15 09:26:19;;;;;;;;;11.00;9.00;;;;;20.91;55.73;100699.34;4900444;28;45509;-71
2022/09/15 09:28:54;;;;;;;;;3.00;3.00;;;;;20.91;55.03;100705.66;4896351;29;46782;-71
2022/09/15 09:31:22;;;;;;;;;10.00;8.75;;;;;20.93;55.16;100710.94;4897720;29;45610;-71
2022/09/15 09:33:57;;;;;;;;;9.75;8.00;;;;;20.89;55.39;100694.03;4901475;29;45704;-71
2022/09/15 09:36:24;;;;;;;;;7.00;6.00;;;;;20.98;55.15;100705.16;4898186;29;45442;-71
2022/09/15 09:38:50;;;;;;;;;5.00;5.00;;;;;21.00;54.82;100703.19;4895494;29;45507;-71
2022/09/15 09:41:25;;;;;;;;;5.50;5.50;;;;;21.01;54.86;100708.50;4900674;28;45554;-71
2022/09/15 09:43:54;;;;;;;;;4.50;4.00;;;;;20.99;54.80;100696.03;4914982;28;45398;-71
2022/09/15 09:46:20;;;;;;;;;6.50;5.00;;;;;21.07;54.32;100715.31;4900374;28;45743;-71
2022/09/15 09:48:55;;;;;;;;;5.50;5.00;;;;;21.10;54.12;100709.66;4899050;29;47949;-71
2022/09/15 09:51:30;;;;;;;;;6.00;4.75;;;;;21.07;54.32;100702.59;4901265;29;45418;-72
2022/09/15 09:54:03;;;;;;;;;6.25;6.00;;;;;21.09;55.68;100694.34;4900217;28;45593;-73
2022/09/15 09:56:28;;;;;;;;;6.75;5.00;;;;;21.17;54.92;100716.34;4901341;29;45465;-74
2022/09/15 09:58:54;;;;;;;;;6.00;4.00;;;;;21.20;54.34;100710.66;4899620;29;47689;-73
2022/09/15 10:01:23;;;;;;;;;6.00;5.25;;;;;21.20;54.00;100704.34;4899883;29;46199;-73
2022/09/15 10:03:48;;;;;;;;;4.50;4.00;;;;;21.21;54.31;100697.97;4900619;28;45526;-73
2022/09/15 10:06:19;;;;;;;;;4.75;4.75;;;;;21.28;54.11;100712.78;4899444;29;45534;-74
2022/09/15 10:09:02;;;;;;;;;8.75;6.50;;;;;21.38;53.69;100712.91;4898358;28;45955;-73
2022/09/15 10:11:57;;;;;;;;;5.75;5.75;;;;;21.32;54.24;100711.56;4897148;29;45744;-73
2022/09/15 10:14:35;;;;;;;;;7.75;6.75;;;;;21.36;53.79;100707.59;4898975;28;45710;-73
2022/09/15 10:17:16;;;;;;;;;6.25;6.00;;;;;21.32;54.25;100706.13;4898455;29;45510;-73
2022/09/15 10:19:41;;;;;;;;;5.75;5.75;;;;;21.35;53.73;100714.03;4908875;28;47543;-73
2022/09/15 10:22:07;;;;;;;;;5.00;5.00;;;;;21.43;54.03;100711.59;4915497;28;45423;-74
2022/09/15 10:24:37;;;;;;;;;6.75;6.00;;;;;21.40;53.41;100698.25;4915600;28;45502;-74
2022/09/15 10:27:26;;;;;;;;;4.25;4.25;;;;;21.49;53.22;100709.41;4897424;29;45478;-74
2022/09/15 10:29:52;;;;;;;;;3.50;3.50;;;;;21.49;53.39;100701.25;4886080;29;47216;-73
2022/09/15 10:32:27;;;;;;;;;4.75;4.25;;;;;21.56;53.01;100703.34;4899681;29;45867;-74
2022/09/15 10:35:00;;;;;;;;;5.00;4.75;;;;;21.50;53.43;100689.41;4898158;29;45768;-74
2022/09/15 10:37:32;;;;;;;;;7.00;5.50;;;;;21.55;53.32;100698.94;4899099;28;45547;-74
2022/09/15 10:40:04;;;;;;;;;5.75;5.75;;;;;21.51;53.23;100693.84;4898022;28;46807;-73
2022/09/15 10:42:52;;;;;;;;;7.75;6.25;;;;;21.56;52.76;100705.22;4887886;29;45612;-74
2022/09/15 10:45:25;;;;;;;;;7.25;6.50;;;;;21.54;52.97;100693.63;4901880;28;45560;-73
2022/09/15 10:48:22;;;;;;;;;7.00;7.00;;;;;21.59;53.37;100707.69;4914291;28;45519;-74
2022/09/15 10:50:58;;;;;;;;;6.00;6.00;;;;;21.57;52.93;100709.66;4891142;29;47396;-74
2022/09/15 10:53:47;;;;;;;;;7.75;6.25;;;;;21.54;53.78;100713.47;4898669;28;45674;-74
2022/09/15 10:56:51;;;;;;;;;8.50;7.00;;;;;21.57;53.40;100715.97;4895549;29;45473;-74
2022/09/15 10:59:44;;;;;;;;;7.50;6.25;;;;;21.59;53.43;100713.13;4822698;29;45635;-74
2022/09/15 11:02:18;;;;;;;;;6.50;6.50;;;;;21.61;53.64;100708.44;4895632;28;46034;-74
2022/09/15 11:04:46;;;;;;;;;5.50;5.00;;;;;21.63;53.10;100709.16;4900273;28;46087;-74
2022/09/15 11:07:40;;;;;;;;;4.50;4.50;;;;;21.63;53.25;100704.63;4901261;29;45542;-74
2022/09/15 11:10:37;;;;;;;;;5.50;4.00;;;;;21.68;52.61;100715.09;4897965;29;45659;-72
2022/09/15 11:13:27;;;;;;;;;5.25;4.00;;;;;21.73;52.91;100706.56;4899611;28;45970;-72
2022/09/15 11:16:06;;;;;;;;;5.00;5.00;;;;;21.78;52.95;100705.22;4901840;29;45435;-71
2022/09/15 11:18:51;;;;;;;;;4.00;4.00;;;;;21.82;52.45;100709.44;4901421;28;45419;-72
2022/09/15 11:21:25;;;;;;;;;2.50;2.50;;;;;21.87;51.90;100708.19;4885837;29;45631;-66
2022/09/15 11:24:21;;;;;;;;;4.75;4.00;;;;;21.87;52.37;100713.63;4904037;29;46340;-66
2022/09/15 11:26:56;;;;;;;;;4.00;4.00;;;;;21.88;52.07;100704.50;4903552;29;45376;-66
2022/09/15 11:30:10;;;;;;;;;4.25;4.25;;;;;21.92;51.41;100705.94;4878299;29;45503;-66
2022/09/15 11:32:38;;;;;;;;;7.00;4.00;;;;;21.92;51.78;100697.81;4888484;29;45289;-66
2022/09/15 11:35:34;;;;;;;;;4.00;4.00;;;;;21.93;51.77;100694.09;4897790;29;46262;-66